Terminal Aerodrome Forecast
Issued by NWS Louisville, KY

Home | Current Version | Previous Version | Text Only | Print | Product List | Glossary On
Versions: 1 2 3 4 5 6 7 8 9 10 11 12 13 14 15 16 17 18 19 20 21 22
907
FTUS43 KLMK 142338
TAFSDF
TAF
KSDF 142338Z 1500/1606 VRB05KT P6SM FEW250
     FM151200 17006KT P6SM BKN100
     FM151900 22008KT P6SM -SHRA OVC040
     FM152000 22007KT 3SM -SHRA BR OVC018
     FM152200 23007KT 3SM -SHRA BR OVC008
     FM160100 25006KT P6SM VCSH BKN015=

USA.gov is the U.S. government's official web portal to all federal, state and local government web resources and services.